Stations météo

réclame
Mon MeteoGroup
Dortmund/Wickede, Allemagne (10416): Température de l'air & dewpoint: 15.11.2019 13:00:00 - 21.11.2019 13:00:00 (CET)Dortmund/Wickede, Allemagne (10416): Vitesse du vent: 15.11.2019 13:00:00 - 21.11.2019 13:00:00 (CET)Dortmund/Wickede, Allemagne (10416): Direction du vent: 15.11.2019 13:00:00 - 21.11.2019 13:00:00 (CET)Dortmund/Wickede, Allemagne (10416): visibility: 15.11.2019 13:00:00 - 21.11.2019 13:00:00 (CET)
Date & Time tt [°C] td [°C] ff [km/h] ff [knt] dd vv [km]
21.11.2019 13:00:00 - - - - - -
21.11.2019 12:00:00 3,0 1,0 13 7 E 10
21.11.2019 11:00:00 2,0 1,0 5 3 ENE 10
21.11.2019 10:00:00 1,0 0,0 11 6 ESE 10
21.11.2019 09:00:00 0,0 0,0 9 5 SE 10
21.11.2019 08:00:00 -2,0 -2,0 8 4 SSE 10
21.11.2019 07:00:00 -2,0 -3,0 0 0 N 10
21.11.2019 06:00:00 -3,0 -3,0 0 0 N 8
21.11.2019 05:00:00 -2,0 -2,0 0 0 N 4,8
21.11.2019 04:00:00 -2,0 -2,0 0 0 N 6
21.11.2019 03:00:00 -1,0 -1,0 0 0 N 0,3
21.11.2019 02:00:00 0,0 -1,0 8 4 ENE 0,3
21.11.2019 01:00:00 0,0 0,0 5 3 ENE 0,3
21.11.2019 00:00:00 0,0 0,0 8 4 E 0,3
20.11.2019 23:00:00 0,0 0,0 9 5 NE 0,3
20.11.2019 22:00:00 0,0 0,0 8 4 ENE 3,8
20.11.2019 21:00:00 1,0 1,0 8 4 E 5
20.11.2019 20:00:00 2,0 2,0 11 6 E 5
20.11.2019 19:00:00 3,0 2,0 13 7 E 4,5
20.11.2019 18:00:00 2,0 1,0 11 6 NE 4,5
20.11.2019 17:00:00 3,0 1,0 4 2 NE 4,5
20.11.2019 16:00:00 3,0 2,0 8 4 NE 5
20.11.2019 15:00:00 4,0 2,0 9 5 NE 6
20.11.2019 14:00:00 4,0 2,0 11 6 NE 10
20.11.2019 13:00:00 6,0 2,0 2 1 - 10
20.11.2019 12:00:00 4,0 1,0 9 5 SSE 10
20.11.2019 11:00:00 3,0 2,0 9 5 E 7
20.11.2019 10:00:00 2,0 2,0 9 5 SE 5
20.11.2019 09:00:00 1,0 1,0 8 4 ESE 4,9
20.11.2019 08:00:00 0,0 -1,0 0 0 N 1,1
20.11.2019 07:00:00 0,0 -1,0 8 4 SSE 2,0
20.11.2019 06:00:00 1,0 0,0 4 2 - 6
20.11.2019 05:00:00 2,0 2,0 11 6 SSE 6
20.11.2019 04:00:00 1,0 1,0 11 6 S 6
20.11.2019 03:00:00 0,0 0,0 13 7 SSE 4,5
20.11.2019 02:00:00 1,0 1,0 13 7 SSE 5
20.11.2019 01:00:00 1,0 1,0 13 7 SSE 4,1
20.11.2019 00:00:00 1,0 1,0 13 7 SSE 3,6
19.11.2019 23:00:00 1,0 1,0 15 8 S 5
19.11.2019 22:00:00 1,0 1,0 11 6 S 7
19.11.2019 21:00:00 2,0 1,0 11 6 S 9
19.11.2019 20:00:00 2,0 2,0 13 7 S 10
19.11.2019 19:00:00 2,0 2,0 11 6 S 10
19.11.2019 18:00:00 2,0 2,0 13 7 S 10
19.11.2019 17:00:00 4,0 3,0 13 7 SSW 10
19.11.2019 16:00:00 4,0 3,0 13 7 S 10
19.11.2019 15:00:00 4,0 3,0 15 8 S 10
19.11.2019 14:00:00 4,0 3,0 16 9 S 9
19.11.2019 13:00:00 4,0 3,0 16 9 SSW 9
19.11.2019 12:00:00 4,0 3,0 16 9 SSW 6
19.11.2019 11:00:00 4,0 3,0 11 6 SW 10
19.11.2019 10:00:00 4,0 3,0 18 10 SW 10
19.11.2019 09:00:00 4,0 3,0 16 9 SW 10
19.11.2019 08:00:00 3,0 2,0 21 11 SW 10
19.11.2019 07:00:00 3,0 2,0 21 11 SSW 10
19.11.2019 06:00:00 4,0 2,0 24 13 SSW 10
19.11.2019 05:00:00 4,0 3,0 22 12 SW 10
19.11.2019 04:00:00 4,0 3,0 21 11 SW 10
19.11.2019 03:00:00 5,0 4,0 21 11 SW 10
19.11.2019 02:00:00 6,0 5,0 18 10 WSW 10
19.11.2019 01:00:00 6,0 5,0 16 9 WSW 10
19.11.2019 00:00:00 6,0 6,0 15 8 WSW 10
18.11.2019 23:00:00 4,0 4,0 21 11 S 9
18.11.2019 22:00:00 4,0 3,0 15 8 SSW 10
18.11.2019 21:00:00 3,0 2,0 26 14 S 9
18.11.2019 20:00:00 3,0 2,0 24 13 S 10
18.11.2019 19:00:00 3,0 2,0 21 11 S 10
18.11.2019 18:00:00 3,0 2,0 21 11 S 10
18.11.2019 17:00:00 4,0 3,0 21 11 S 10
18.11.2019 16:00:00 5,0 3,0 18 10 SSW 10
18.11.2019 15:00:00 5,0 5,0 13 7 S 10
18.11.2019 14:00:00 5,0 5,0 15 8 SSW 6
18.11.2019 13:00:00 5,0 5,0 13 7 SSW 5
18.11.2019 12:00:00 5,0 5,0 8 4 SW 4,6
18.11.2019 11:00:00 5,0 5,0 5 3 SW 2,0
18.11.2019 10:00:00 5,0 4,0 5 3 WSW 2,3
18.11.2019 09:00:00 4,0 4,0 5 3 WSW 2,6
18.11.2019 08:00:00 4,0 4,0 9 5 SW 2,7
18.11.2019 07:00:00 4,0 4,0 8 4 WSW 2,1
18.11.2019 06:00:00 4,0 4,0 5 3 WSW 2,0
18.11.2019 05:00:00 4,0 4,0 5 3 W 1,7
18.11.2019 04:00:00 4,0 3,0 4 2 - 1,2
18.11.2019 03:00:00 4,0 3,0 4 2 - 2,0
18.11.2019 02:00:00 3,0 3,0 8 4 NW 2,7
18.11.2019 01:00:00 3,0 3,0 5 3 NW 2,8
18.11.2019 00:00:00 3,0 3,0 8 4 NW 3,1
17.11.2019 23:00:00 3,0 3,0 8 4 N 4,1
17.11.2019 22:00:00 3,0 3,0 15 8 N 4,1
17.11.2019 21:00:00 3,0 3,0 16 9 N 4,0
17.11.2019 20:00:00 3,0 3,0 15 8 N 4,2
17.11.2019 19:00:00 3,0 3,0 11 6 N 4,8
17.11.2019 18:00:00 3,0 3,0 9 5 N 4,2
17.11.2019 17:00:00 3,0 2,0 5 3 ENE 4,8
17.11.2019 16:00:00 3,0 2,0 5 3 N 7
17.11.2019 15:00:00 3,0 2,0 9 5 N 7
17.11.2019 14:00:00 3,0 2,0 5 3 NNE 8
17.11.2019 13:00:00 3,0 1,0 8 4 NNE 10
17.11.2019 12:00:00 2,0 1,0 4 2 - 10
17.11.2019 11:00:00 1,0 1,0 5 3 NNE 10
17.11.2019 10:00:00 1,0 0,0 4 2 - 10
17.11.2019 09:00:00 1,0 0,0 8 4 E 10
17.11.2019 08:00:00 0,0 -1,0 5 3 E 10
17.11.2019 07:00:00 1,0 0,0 8 4 ENE 10
17.11.2019 06:00:00 1,0 -1,0 16 9 SSE 10
17.11.2019 05:00:00 2,0 0,0 15 8 SSE 10
17.11.2019 04:00:00 2,0 0,0 15 8 SE 10
17.11.2019 03:00:00 1,0 0,0 11 6 SSE 10
17.11.2019 02:00:00 1,0 0,0 11 6 SSE 10
17.11.2019 01:00:00 0,0 -1,0 13 7 SSE 10
17.11.2019 00:00:00 3,0 1,0 13 7 SSE 10
16.11.2019 23:00:00 2,0 0,0 13 7 SSE 10
16.11.2019 22:00:00 3,0 0,0 11 6 SSE 10
16.11.2019 21:00:00 2,0 0,0 11 6 SSE 10
16.11.2019 20:00:00 4,0 0,0 11 6 SSE 10
16.11.2019 19:00:00 4,0 0,0 9 5 S 10
16.11.2019 18:00:00 2,0 -1,0 8 4 S 10
16.11.2019 17:00:00 5,0 0,0 9 5 S 10
16.11.2019 16:00:00 7,0 2,0 13 7 SW 10
16.11.2019 15:00:00 7,0 1,0 21 11 SSW 10
16.11.2019 14:00:00 8,0 2,0 18 10 SW 10
16.11.2019 13:00:00 7,0 2,0 13 7 SW 10
16.11.2019 12:00:00 6,0 2,0 11 6 SW 10
16.11.2019 11:00:00 5,0 2,0 13 7 S 10
16.11.2019 10:00:00 4,0 3,0 11 6 S 10
16.11.2019 09:00:00 3,0 2,0 9 5 S 10
16.11.2019 08:00:00 2,0 1,0 9 5 S 10
16.11.2019 07:00:00 2,0 1,0 8 4 S 10
16.11.2019 06:00:00 3,0 1,0 5 3 S 10
16.11.2019 05:00:00 4,0 2,0 8 4 SW 10
16.11.2019 04:00:00 4,0 2,0 9 5 SSW 10
16.11.2019 03:00:00 4,0 2,0 5 3 SSW 10
16.11.2019 02:00:00 4,0 2,0 13 7 SW 10
16.11.2019 01:00:00 4,0 2,0 13 7 S 10
16.11.2019 00:00:00 3,0 2,0 9 5 S 10
15.11.2019 23:00:00 4,0 2,0 9 5 SSE 10
15.11.2019 22:00:00 4,0 2,0 8 4 SSE 10
15.11.2019 21:00:00 4,0 2,0 5 3 S 10
15.11.2019 20:00:00 4,0 2,0 5 3 S 10
15.11.2019 19:00:00 4,0 2,0 9 5 SSW 10
15.11.2019 18:00:00 5,0 3,0 5 3 S 10
15.11.2019 17:00:00 5,0 3,0 5 3 SSE 10
15.11.2019 16:00:00 5,0 3,0 5 3 ENE 10
15.11.2019 15:00:00 6,0 3,0 9 5 - 10
15.11.2019 14:00:00 6,0 3,0 11 6 ENE 10
15.11.2019 13:00:00 6,0 3,0 13 7 ENE 10

tt = Température de l'air
td = dewpoint
ff = Vitesse du vent
dd = Direction du vent
vv = visibility

stations d'obs. à proximité